createdAt,value
2018-07-31T00:00:55.336Z,86.35
2018-07-31T00:01:55.355Z,85.67
2018-07-31T00:02:55.406Z,86.05
2018-07-31T00:03:55.459Z,85.28
2018-07-31T00:04:55.511Z,86.15
2018-07-31T00:05:55.601Z,85.47
2018-07-31T00:06:55.614Z,86.44
2018-07-31T00:07:55.666Z,85.96
2018-07-31T00:08:55.716Z,85.67
2018-07-31T00:09:55.767Z,85.38
2018-07-31T00:10:55.850Z,85.77
2018-07-31T00:11:55.872Z,86.73
2018-07-31T00:12:55.924Z,86.82
2018-07-31T00:13:55.977Z,86.54
2018-07-31T00:14:56.026Z,86.05
2018-07-31T00:15:56.104Z,86.35
2018-07-31T00:16:56.132Z,85.47
2018-07-31T00:17:56.352Z,85.47
2018-07-31T00:18:56.233Z,86.44
2018-07-31T00:19:56.285Z,85.86
2018-07-31T00:20:56.340Z,86.05
2018-07-31T00:21:56.429Z,84.80
2018-07-31T00:22:56.441Z,85.96
2018-07-31T00:23:56.493Z,85.86
2018-07-31T00:24:56.544Z,85.28
2018-07-31T00:25:56.597Z,86.63
2018-07-31T00:26:56.679Z,85.77
2018-07-31T00:27:56.699Z,86.82
2018-07-31T00:28:56.751Z,86.73
2018-07-31T00:29:56.801Z,86.73
2018-07-31T00:30:56.853Z,86.92
2018-07-31T00:31:56.929Z,87.02
2018-07-31T00:32:56.965Z,86.25
2018-07-31T00:33:57.008Z,87.02
2018-07-31T00:34:57.083Z,87.60
2018-07-31T00:35:57.111Z,86.44
2018-07-31T00:36:57.164Z,87.30
2018-07-31T00:37:57.240Z,86.92
2018-07-31T00:38:57.268Z,86.73
2018-07-31T00:39:57.322Z,87.21
2018-07-31T00:40:57.369Z,87.79
2018-07-31T00:41:57.422Z,87.02
2018-07-31T00:42:57.499Z,87.12
2018-07-31T00:43:57.523Z,86.82
2018-07-31T00:44:57.602Z,87.21
2018-07-31T00:45:57.628Z,86.92
2018-07-31T00:46:57.680Z,86.54
2018-07-31T00:47:57.731Z,86.88
2018-07-31T00:48:57.786Z,87.02
2018-07-31T00:49:57.858Z,87.46
2018-07-31T00:50:57.889Z,87.40
2018-07-31T00:51:57.938Z,86.69
2018-07-31T00:52:58.026Z,87.12
2018-07-31T00:53:58.043Z,86.78
2018-07-31T00:54:58.091Z,86.88
2018-07-31T00:55:58.145Z,87.70
2018-07-31T00:56:58.198Z,86.88
2018-07-31T00:57:58.275Z,87.70
2018-07-31T00:58:58.297Z,87.40
2018-07-31T00:59:58.376Z,87.79
2018-07-31T01:00:58.401Z,88.37
2018-07-31T01:01:58.453Z,88.46
2018-07-31T01:02:58.510Z,87.40
2018-07-31T01:03:58.557Z,87.60
2018-07-31T01:04:58.642Z,87.98
2018-07-31T01:05:58.660Z,88.23
2018-07-31T01:06:58.711Z,88.61
2018-07-31T01:07:58.763Z,89.77
2018-07-31T01:08:58.815Z,89.96
2018-07-31T01:09:58.909Z,88.04
2018-07-31T01:10:58.948Z,88.85
2018-07-31T01:11:58.970Z,88.71
2018-07-31T01:12:59.022Z,88.81
2018-07-31T01:13:59.070Z,88.37
2018-07-31T01:14:59.147Z,88.27
2018-07-31T01:15:59.199Z,88.27
2018-07-31T01:16:59.227Z,89.14
2018-07-31T01:17:59.276Z,89.33
2018-07-31T01:18:59.332Z,87.98
2018-07-31T01:19:59.383Z,88.27
2018-07-31T01:20:59.463Z,87.50
2018-07-31T01:21:59.484Z,87.98
2018-07-31T01:22:59.535Z,87.98
2018-07-31T01:23:59.590Z,88.17
2018-07-31T01:24:59.643Z,86.92
2018-07-31T01:25:59.713Z,88.95
2018-07-31T01:26:59.742Z,88.65
2018-07-31T01:27:59.795Z,87.54
2018-07-31T01:28:59.847Z,88.95
2018-07-31T01:29:59.897Z,87.98
2018-07-31T01:30:59.971Z,88.27
2018-07-31T01:32:00.000Z,88.85
2018-07-31T01:33:00.052Z,88.85
2018-07-31T01:34:00.106Z,89.43
2018-07-31T01:35:00.154Z,88.75
2018-07-31T01:36:00.230Z,89.04
2018-07-31T01:37:01.047Z,88.08
2018-07-31T01:38:00.309Z,89.53
2018-07-31T01:39:00.363Z,88.65
2018-07-31T01:40:00.415Z,88.75
2018-07-31T01:41:00.497Z,90.30
2018-07-31T01:42:00.526Z,88.85
2018-07-31T01:43:00.569Z,89.14
2018-07-31T01:44:00.623Z,89.37
2018-07-31T01:45:00.675Z,89.67
2018-07-31T01:46:00.793Z,88.70
2018-07-31T01:47:00.774Z,89.09
2018-07-31T01:48:00.826Z,88.99
2018-07-31T01:49:00.879Z,88.31
2018-07-31T01:50:00.936Z,88.41
2018-07-31T01:51:01.014Z,87.49
2018-07-31T01:52:01.034Z,88.65
2018-07-31T01:53:01.085Z,88.17
2018-07-31T01:54:01.137Z,87.78
2018-07-31T01:55:01.188Z,88.17
2018-07-31T01:56:01.262Z,87.78
2018-07-31T01:57:01.290Z,88.07
2018-07-31T01:58:01.381Z,88.07
2018-07-31T01:59:01.399Z,88.45
2018-07-31T02:00:01.448Z,88.45
2018-07-31T02:01:01.498Z,88.65
2018-07-31T02:02:01.549Z,87.68
2018-07-31T02:03:01.629Z,87.49
2018-07-31T02:04:01.653Z,86.43
2018-07-31T02:05:01.704Z,86.14
2018-07-31T02:06:01.755Z,86.62
2018-07-31T02:07:01.819Z,86.91
2018-07-31T02:08:01.881Z,85.27
2018-07-31T02:09:01.913Z,85.56
2018-07-31T02:10:01.967Z,85.17
2018-07-31T02:11:02.018Z,84.69
2018-07-31T02:12:02.070Z,85.12
2018-07-31T02:13:02.149Z,84.93
2018-07-31T02:14:02.196Z,84.93
2018-07-31T02:15:02.227Z,84.64
2018-07-31T02:16:02.273Z,83.92
2018-07-31T02:17:02.324Z,84.83
2018-07-31T02:18:02.378Z,84.93
2018-07-31T02:19:02.451Z,84.16
2018-07-31T02:20:02.486Z,83.39
2018-07-31T02:21:02.531Z,84.16
2018-07-31T02:22:02.582Z,83.48
2018-07-31T02:23:02.661Z,83.77
2018-07-31T02:24:02.688Z,82.90
2018-07-31T02:25:02.744Z,83.09
2018-07-31T02:26:02.790Z,83.48
2018-07-31T02:27:02.842Z,83.19
2018-07-31T02:28:02.940Z,83.09
2018-07-31T02:29:02.948Z,83.19
2018-07-31T02:30:03.020Z,83.96
2018-07-31T02:31:03.052Z,83.58
2018-07-31T02:32:03.102Z,83.77
2018-07-31T02:33:03.155Z,83.09
2018-07-31T02:34:03.206Z,83.09
2018-07-31T02:35:03.284Z,83.29
2018-07-31T02:36:03.314Z,82.65
2018-07-31T02:37:03.362Z,82.36
2018-07-31T02:38:03.448Z,82.65
2018-07-31T02:39:03.464Z,82.84
2018-07-31T02:40:03.517Z,82.46
2018-07-31T02:41:03.567Z,82.42
2018-07-31T02:42:03.622Z,82.46
2018-07-31T02:43:03.700Z,82.75
2018-07-31T02:44:03.722Z,82.32
2018-07-31T02:45:03.777Z,83.09
2018-07-31T02:46:03.831Z,83.00
2018-07-31T02:47:03.880Z,83.29
2018-07-31T02:48:03.971Z,83.00
2018-07-31T02:49:03.985Z,82.23
2018-07-31T02:50:04.036Z,83.19
2018-07-31T02:51:04.091Z,83.19
2018-07-31T02:52:04.141Z,83.00
2018-07-31T02:53:04.217Z,83.96
2018-07-31T02:54:04.243Z,83.77
2018-07-31T02:55:04.308Z,83.19
2018-07-31T02:56:04.373Z,84.00
2018-07-31T02:57:04.399Z,83.91
2018-07-31T02:58:04.508Z,83.91
2018-07-31T02:59:04.508Z,83.91
2018-07-31T03:00:04.554Z,84.00
2018-07-31T03:01:04.633Z,83.62
2018-07-31T03:02:04.657Z,84.97
2018-07-31T03:03:04.717Z,84.88
2018-07-31T03:04:04.762Z,84.78
2018-07-31T03:05:04.816Z,84.97
2018-07-31T03:06:04.888Z,84.68
2018-07-31T03:07:04.947Z,84.68
2018-07-31T03:08:04.986Z,84.97
2018-07-31T03:09:05.021Z,85.55
2018-07-31T03:10:05.082Z,84.74
2018-07-31T03:11:05.156Z,84.88
2018-07-31T03:12:05.200Z,84.97
2018-07-31T03:13:05.229Z,84.44
2018-07-31T03:14:05.280Z,85.12
2018-07-31T03:15:05.334Z,84.93
2018-07-31T03:16:05.384Z,85.89
2018-07-31T03:17:05.459Z,85.02
2018-07-31T03:18:05.488Z,84.74
2018-07-31T03:19:05.542Z,85.12
2018-07-31T03:20:05.592Z,84.64
2018-07-31T03:21:05.648Z,85.70
2018-07-31T03:22:05.728Z,84.83
2018-07-31T03:23:05.748Z,84.54
2018-07-31T03:24:05.801Z,85.12
2018-07-31T03:25:05.853Z,85.89
2018-07-31T03:26:05.909Z,84.93
2018-07-31T03:27:05.989Z,85.02
2018-07-31T03:28:06.053Z,84.83
2018-07-31T03:29:06.059Z,84.93
2018-07-31T03:30:06.112Z,85.80
2018-07-31T03:31:06.165Z,85.41
2018-07-31T03:32:06.254Z,85.41
2018-07-31T03:33:06.267Z,85.89
2018-07-31T03:34:06.317Z,86.18
2018-07-31T03:35:06.372Z,86.47
2018-07-31T03:36:06.425Z,86.66
2018-07-31T03:37:06.526Z,86.66
2018-07-31T03:38:06.525Z,86.91
2018-07-31T03:39:06.579Z,87.01
2018-07-31T03:40:06.630Z,87.30
2018-07-31T03:41:06.683Z,87.49
2018-07-31T03:42:06.755Z,87.40
2018-07-31T03:43:06.809Z,87.88
2018-07-31T03:44:06.837Z,87.01
2018-07-31T03:45:06.889Z,87.40
2018-07-31T03:46:06.953Z,88.26
2018-07-31T03:47:06.993Z,89.03
2018-07-31T03:48:07.070Z,88.45
2018-07-31T03:49:07.096Z,89.03
2018-07-31T03:50:07.190Z,89.23
2018-07-31T03:51:07.197Z,88.93
2018-07-31T03:52:07.254Z,89.13
2018-07-31T03:53:07.336Z,89.09
2018-07-31T03:54:07.365Z,89.76
2018-07-31T03:55:07.413Z,90.82
2018-07-31T03:56:07.459Z,90.34
2018-07-31T03:57:07.510Z,90.44
2018-07-31T03:58:07.597Z,90.53
2018-07-31T03:59:07.613Z,91.20
2018-07-31T04:00:07.670Z,91.98
2018-07-31T04:01:07.718Z,91.88
2018-07-31T04:02:07.769Z,91.98
2018-07-31T04:03:07.849Z,91.64
2018-07-31T04:04:07.870Z,91.06
2018-07-31T04:05:07.923Z,91.83
2018-07-31T04:06:07.975Z,93.57
2018-07-31T04:07:08.028Z,93.19
2018-07-31T04:08:08.102Z,92.13
2018-07-31T04:09:08.132Z,93.38
2018-07-31T04:10:08.203Z,92.90
2018-07-31T04:11:08.234Z,93.38
2018-07-31T04:12:08.286Z,92.13
2018-07-31T04:13:08.340Z,93.28
2018-07-31T04:14:08.411Z,92.90
2018-07-31T04:15:08.465Z,93.48
2018-07-31T04:16:08.497Z,93.62
2018-07-31T04:17:08.599Z,93.43
2018-07-31T04:18:08.597Z,94.10
2018-07-31T04:19:08.648Z,94.78
2018-07-31T04:20:08.733Z,94.49
2018-07-31T04:21:08.750Z,95.36
2018-07-31T04:22:08.802Z,94.78
2018-07-31T04:23:08.857Z,95.94
2018-07-31T04:24:08.908Z,96.42
2018-07-31T04:25:08.983Z,97.47
2018-07-31T04:26:09.010Z,96.32
2018-07-31T04:27:09.059Z,97.28
2018-07-31T04:28:09.110Z,98.24
2018-07-31T04:29:09.164Z,99.99
2018-07-31T04:30:09.258Z,99.69
2018-07-31T04:31:09.266Z,99.99
2018-07-31T04:32:09.321Z,99.99
2018-07-31T04:33:09.369Z,99.99
2018-07-31T04:34:09.419Z,99.99
2018-07-31T04:35:09.516Z,99.99
2018-07-31T04:36:09.550Z,99.99
2018-07-31T04:37:09.575Z,99.99
2018-07-31T04:38:09.626Z,99.99
2018-07-31T04:39:09.678Z,99.99
2018-07-31T04:40:09.772Z,99.99
2018-07-31T04:41:09.820Z,99.99
2018-07-31T04:42:09.885Z,99.99
2018-07-31T04:43:09.884Z,99.99
2018-07-31T04:44:09.946Z,99.99
2018-07-31T04:45:10.030Z,99.99
2018-07-31T04:46:10.039Z,99.99
2018-07-31T04:47:10.089Z,99.99
2018-07-31T04:48:10.142Z,99.99
2018-07-31T04:49:10.193Z,99.99
2018-07-31T04:50:10.321Z,99.99
2018-07-31T04:51:10.323Z,99.99
2018-07-31T04:52:10.348Z,99.99
2018-07-31T04:53:10.404Z,99.99
2018-07-31T04:54:10.449Z,99.99
2018-07-31T04:55:10.501Z,99.99
2018-07-31T04:56:10.578Z,99.99
2018-07-31T04:57:10.607Z,99.99
2018-07-31T04:58:10.658Z,99.99
2018-07-31T04:59:10.708Z,99.99
2018-07-31T05:00:10.760Z,99.99
2018-07-31T05:01:10.835Z,99.99
2018-07-31T05:02:10.890Z,99.99
2018-07-31T05:03:10.914Z,99.99
2018-07-31T05:04:10.965Z,99.99
2018-07-31T05:05:11.018Z,99.99
2018-07-31T05:06:11.071Z,99.99
2018-07-31T05:07:11.145Z,99.99
2018-07-31T05:08:11.174Z,99.99
2018-07-31T05:09:11.224Z,99.99
2018-07-31T05:10:11.276Z,99.99
2018-07-31T05:11:11.335Z,99.99
2018-07-31T05:12:11.411Z,99.99
2018-07-31T05:13:11.430Z,99.99
2018-07-31T05:14:11.481Z,99.99
2018-07-31T05:15:11.533Z,99.99
2018-07-31T05:16:11.587Z,99.99
2018-07-31T05:17:11.669Z,99.99
2018-07-31T05:18:11.715Z,99.99
2018-07-31T05:19:11.742Z,99.99
2018-07-31T05:20:11.793Z,99.99
2018-07-31T05:21:11.845Z,99.99
2018-07-31T05:22:11.931Z,99.99
2018-07-31T05:23:11.950Z,99.99
2018-07-31T05:24:12.001Z,99.99
2018-07-31T05:25:12.097Z,99.99
2018-07-31T05:26:12.105Z,99.99
2018-07-31T05:27:12.185Z,99.99
2018-07-31T05:28:12.238Z,99.99
2018-07-31T05:29:12.265Z,99.99
2018-07-31T05:30:12.315Z,99.99
2018-07-31T05:31:12.423Z,99.99
2018-07-31T05:32:12.420Z,99.99
2018-07-31T05:33:12.677Z,99.99
2018-07-31T05:34:12.549Z,99.99
2018-07-31T05:35:12.578Z,99.99
2018-07-31T05:36:12.623Z,99.99
2018-07-31T05:37:12.676Z,99.99
2018-07-31T05:38:12.727Z,99.99
2018-07-31T05:39:12.809Z,99.99
2018-07-31T05:40:12.832Z,99.99
2018-07-31T05:41:12.891Z,99.99
2018-07-31T05:42:12.937Z,99.99
2018-07-31T05:43:12.988Z,99.99
2018-07-31T05:44:13.077Z,99.99
2018-07-31T05:45:13.092Z,99.99
2018-07-31T05:46:13.206Z,99.99
2018-07-31T05:47:13.196Z,99.99
2018-07-31T05:48:13.248Z,99.99
2018-07-31T05:49:13.331Z,99.99
2018-07-31T05:50:13.354Z,99.99
2018-07-31T05:51:13.405Z,99.99
2018-07-31T05:52:13.458Z,99.99
2018-07-31T05:53:13.510Z,99.99
2018-07-31T05:54:13.584Z,99.99
2018-07-31T05:55:13.638Z,99.99
2018-07-31T05:56:13.666Z,99.99
2018-07-31T05:57:13.721Z,99.99
2018-07-31T05:58:13.767Z,99.99
2018-07-31T05:59:13.820Z,99.99
2018-07-31T06:00:13.898Z,99.99
2018-07-31T06:01:13.927Z,99.99
2018-07-31T06:02:13.984Z,99.99
2018-07-31T06:03:14.029Z,99.99
2018-07-31T06:04:14.082Z,99.99
2018-07-31T06:05:14.162Z,99.99
2018-07-31T06:06:14.186Z,99.99
2018-07-31T06:07:14.247Z,99.99
2018-07-31T06:08:14.290Z,99.99
2018-07-31T06:09:14.352Z,99.99
2018-07-31T06:10:14.418Z,99.99
2018-07-31T06:11:14.462Z,99.99
2018-07-31T06:12:14.501Z,99.99
2018-07-31T06:13:14.552Z,99.99
2018-07-31T06:14:14.603Z,99.99
2018-07-31T06:15:14.737Z,99.99
2018-07-31T06:16:14.709Z,99.99
2018-07-31T06:17:14.761Z,99.99
2018-07-31T06:18:14.811Z,99.99
2018-07-31T06:19:14.867Z,99.99
2018-07-31T06:20:14.952Z,99.99
2018-07-31T06:21:14.970Z,99.99
2018-07-31T06:22:15.032Z,99.99
2018-07-31T06:23:15.074Z,99.99
2018-07-31T06:24:15.126Z,99.99
2018-07-31T06:25:15.203Z,99.99
2018-07-31T06:26:15.230Z,99.99
2018-07-31T06:27:15.283Z,99.99
2018-07-31T06:28:15.339Z,99.99
2018-07-31T06:29:15.393Z,99.99
2018-07-31T06:30:15.469Z,99.99
2018-07-31T06:31:15.521Z,99.99
2018-07-31T06:32:15.548Z,99.99
2018-07-31T06:33:15.602Z,99.99
2018-07-31T06:34:15.651Z,99.99
2018-07-31T06:35:15.702Z,99.99
2018-07-31T06:36:15.784Z,99.99
2018-07-31T06:37:15.812Z,99.99
2018-07-31T06:38:15.860Z,99.99
2018-07-31T06:39:15.913Z,99.99
2018-07-31T06:40:15.966Z,99.99
2018-07-31T06:41:16.043Z,99.99
2018-07-31T06:42:16.070Z,99.99
2018-07-31T06:43:16.125Z,99.99
2018-07-31T06:44:16.179Z,99.46
2018-07-31T06:45:16.233Z,99.99
2018-07-31T06:46:16.321Z,99.99
2018-07-31T06:47:16.335Z,99.74
2018-07-31T06:48:16.388Z,99.84
2018-07-31T06:49:16.455Z,99.46
2018-07-31T06:50:16.496Z,99.51
2018-07-31T06:51:16.588Z,97.67
2018-07-31T06:52:16.599Z,96.75
2018-07-31T06:53:16.652Z,94.71
2018-07-31T06:54:16.707Z,91.75
2018-07-31T06:55:16.759Z,89.03
2018-07-31T06:56:16.846Z,85.63
2018-07-31T06:57:16.864Z,83.18
2018-07-31T06:58:16.917Z,81.68
2018-07-31T06:59:16.972Z,81.43
2018-07-31T07:00:17.032Z,81.88
2018-07-31T07:01:17.103Z,81.98
2018-07-31T07:02:17.160Z,81.14
2018-07-31T07:03:17.187Z,80.40
2018-07-31T07:04:17.240Z,79.86
2018-07-31T07:05:17.296Z,78.05
2018-07-31T07:06:17.348Z,76.04
2018-07-31T07:07:17.427Z,74.85
2018-07-31T07:08:17.455Z,72.74
2018-07-31T07:09:17.551Z,71.37
2018-07-31T07:10:17.567Z,71.08
2018-07-31T07:11:17.618Z,72.31
2018-07-31T07:12:17.703Z,72.90
2018-07-31T07:13:17.730Z,72.71
2018-07-31T07:14:17.782Z,72.41
2018-07-31T07:15:17.836Z,73.45
2018-07-31T07:16:17.892Z,72.61
2018-07-31T07:17:17.987Z,71.73
2018-07-31T07:18:18.002Z,71.57
2018-07-31T07:19:18.056Z,72.86
2018-07-31T07:20:18.115Z,72.09
2018-07-31T07:21:18.187Z,71.31
2018-07-31T07:22:18.272Z,71.54
2018-07-31T07:23:18.278Z,72.80
2018-07-31T07:24:18.336Z,71.77
2018-07-31T07:25:18.390Z,69.69
2018-07-31T07:26:18.443Z,67.77
2018-07-31T07:27:18.526Z,67.12
2018-07-31T07:28:18.583Z,66.96
2018-07-31T07:29:18.612Z,67.29
2018-07-31T07:30:18.670Z,66.11
2018-07-31T07:31:18.724Z,66.05
2018-07-31T07:32:18.782Z,65.23
2018-07-31T07:33:18.858Z,66.17
2018-07-31T07:34:18.891Z,66.27
2018-07-31T07:35:18.953Z,65.98
2018-07-31T07:36:19.006Z,67.61
2018-07-31T07:37:19.061Z,66.44
2018-07-31T07:38:19.140Z,66.53
2018-07-31T07:39:19.174Z,68.19
2018-07-31T07:40:19.255Z,67.74
2018-07-31T07:41:19.286Z,66.60
2018-07-31T07:42:19.342Z,67.67
2018-07-31T07:43:19.427Z,68.55
2018-07-31T07:44:19.455Z,68.71
2018-07-31T07:45:19.512Z,70.37
2018-07-31T07:46:19.566Z,70.37
2018-07-31T07:47:19.622Z,70.72
2018-07-31T07:48:19.735Z,71.01
2018-07-31T07:49:19.740Z,70.23
2018-07-31T07:50:19.792Z,70.14
2018-07-31T07:51:19.848Z,69.68
2018-07-31T07:52:19.904Z,68.45
2018-07-31T07:53:19.988Z,69.49
2018-07-31T07:54:20.111Z,69.59
2018-07-31T07:55:20.075Z,68.84
2018-07-31T07:56:20.133Z,67.67
2018-07-31T07:57:20.189Z,67.96
2018-07-31T07:58:20.242Z,67.86
2018-07-31T07:59:20.322Z,67.96
2018-07-31T08:00:20.354Z,67.77
2018-07-31T08:01:20.411Z,67.18
2018-07-31T08:02:20.466Z,67.64
2018-07-31T08:03:20.525Z,68.62
2018-07-31T08:04:20.612Z,68.10
2018-07-31T08:05:20.635Z,67.05
2018-07-31T08:06:20.694Z,67.18
2018-07-31T08:07:20.748Z,68.87
2018-07-31T08:08:20.804Z,68.62
2018-07-31T08:09:20.895Z,68.77
2018-07-31T08:10:20.919Z,69.56
2018-07-31T08:11:20.976Z,69.26
2018-07-31T08:12:21.031Z,68.38
2018-07-31T08:13:21.090Z,67.41
2018-07-31T08:14:21.169Z,67.80
2018-07-31T08:15:21.226Z,66.96
2018-07-31T08:16:21.256Z,65.56
2018-07-31T08:17:21.314Z,65.23
2018-07-31T08:18:21.377Z,66.14
2018-07-31T08:19:21.427Z,64.42
2018-07-31T08:20:21.558Z,63.60
2018-07-31T08:21:21.543Z,64.26
2018-07-31T08:22:21.596Z,63.41
2018-07-31T08:23:21.669Z,63.70
2018-07-31T08:24:21.710Z,64.55
2018-07-31T08:25:21.792Z,64.97
2018-07-31T08:26:21.820Z,65.59
2018-07-31T08:27:21.881Z,63.02
2018-07-31T08:28:21.937Z,61.06
2018-07-31T08:29:21.994Z,62.95
2018-07-31T08:30:22.076Z,60.31
2018-07-31T08:31:22.110Z,60.70
2018-07-31T08:32:22.167Z,60.31
2018-07-31T08:33:22.272Z,59.82
2018-07-31T08:34:22.277Z,61.48
2018-07-31T08:35:22.360Z,60.18
2018-07-31T08:36:22.394Z,59.89
2018-07-31T08:37:22.449Z,61.06
2018-07-31T08:38:22.506Z,59.86
2018-07-31T08:39:22.564Z,60.94
2018-07-31T08:40:22.685Z,60.86
2018-07-31T08:41:22.746Z,60.28
2018-07-31T08:42:22.757Z,61.43
2018-07-31T08:43:22.792Z,59.99
2018-07-31T08:44:22.849Z,60.06
2018-07-31T08:45:22.955Z,61.66
2018-07-31T08:46:22.967Z,63.02
2018-07-31T08:47:23.022Z,62.08
2018-07-31T08:48:23.080Z,60.35
2018-07-31T08:49:23.141Z,61.35
2018-07-31T08:50:23.218Z,59.14
2018-07-31T08:51:23.279Z,58.65
2018-07-31T08:52:23.313Z,59.23
2018-07-31T08:53:23.370Z,58.65
2018-07-31T08:54:23.428Z,59.28
2018-07-31T08:55:23.483Z,59.96
2018-07-31T08:56:23.564Z,60.74
2018-07-31T08:57:23.602Z,59.99
2018-07-31T08:58:23.659Z,60.35
2018-07-31T08:59:23.723Z,61.00
2018-07-31T09:00:23.775Z,62.85
2018-07-31T09:01:23.859Z,62.37
2018-07-31T09:02:23.893Z,61.59
2018-07-31T09:03:23.950Z,62.37
2018-07-31T09:04:24.006Z,61.98
2018-07-31T09:05:24.065Z,62.85
2018-07-31T09:06:24.152Z,62.08
2018-07-31T09:07:24.182Z,60.81
2018-07-31T09:08:24.317Z,61.46
2018-07-31T09:09:24.295Z,61.98
2018-07-31T09:10:24.352Z,62.73
2018-07-31T09:11:24.444Z,62.92
2018-07-31T09:12:24.469Z,61.33
2018-07-31T09:13:24.525Z,60.08
2018-07-31T09:14:24.587Z,59.14
2018-07-31T09:15:24.642Z,57.77
2018-07-31T09:16:24.722Z,56.04
2018-07-31T09:17:24.789Z,51.73
2018-07-31T09:18:24.816Z,53.13
2018-07-31T09:19:24.879Z,52.12
2018-07-31T09:20:24.930Z,50.44
2018-07-31T09:21:24.993Z,51.92
2018-07-31T09:22:25.104Z,53.95
2018-07-31T09:23:25.105Z,55.90
2018-07-31T09:24:25.212Z,56.12
2018-07-31T09:25:25.222Z,57.00
2018-07-31T09:26:25.283Z,57.85
2018-07-31T09:27:25.367Z,59.06
2018-07-31T09:28:25.399Z,61.89
2018-07-31T09:29:25.457Z,61.46
2018-07-31T09:30:25.559Z,60.32
2018-07-31T09:31:25.574Z,58.86
2018-07-31T09:32:25.662Z,58.83
2018-07-31T09:33:25.688Z,61.07
2018-07-31T09:34:25.750Z,62.95
2018-07-31T09:35:25.827Z,62.60
2018-07-31T09:36:25.887Z,63.80
2018-07-31T09:37:26.066Z,61.88
2018-07-31T09:38:25.981Z,60.29
2018-07-31T09:39:26.038Z,59.74
2018-07-31T09:40:26.099Z,62.50
2018-07-31T09:41:26.156Z,63.87
2018-07-31T09:42:26.237Z,64.91
2018-07-31T09:43:26.268Z,64.10
2018-07-31T09:44:26.335Z,64.39
2018-07-31T09:45:26.398Z,64.84
2018-07-31T09:46:26.445Z,64.26
2018-07-31T09:47:26.521Z,65.85
2018-07-31T09:48:26.628Z,65.14
2018-07-31T09:49:26.616Z,63.15
2018-07-31T09:50:26.675Z,67.02
2018-07-31T09:51:26.732Z,62.10
2018-07-31T09:52:26.791Z,59.79
2018-07-31T09:53:26.895Z,61.79
2018-07-31T09:54:26.906Z,64.84
2018-07-31T09:55:26.964Z,64.91
2018-07-31T09:56:27.028Z,64.78
2018-07-31T09:57:27.080Z,66.66
2018-07-31T09:58:27.166Z,66.27
2018-07-31T09:59:27.194Z,66.14
2018-07-31T10:00:27.258Z,68.87
2018-07-31T10:01:27.310Z,68.45
2018-07-31T10:02:27.373Z,67.77
2018-07-31T10:03:27.455Z,67.99
2018-07-31T10:04:27.496Z,69.07
2018-07-31T10:05:27.545Z,70.10
2018-07-31T10:06:27.609Z,70.36
2018-07-31T10:07:27.659Z,71.23
2018-07-31T10:08:27.782Z,71.72
2018-07-31T10:09:27.774Z,72.70
2018-07-31T10:10:27.838Z,71.27
2018-07-31T10:11:27.889Z,71.34
2018-07-31T10:12:27.948Z,68.00
2018-07-31T10:13:28.055Z,67.32
2018-07-31T10:14:28.063Z,67.54
2018-07-31T10:15:28.121Z,67.22
2018-07-31T10:16:28.178Z,65.20
2018-07-31T10:17:28.240Z,60.34
2018-07-31T10:18:28.334Z,61.12
2018-07-31T10:19:28.352Z,63.60
2018-07-31T10:20:28.418Z,63.77
2018-07-31T10:21:28.468Z,63.41
2018-07-31T10:22:28.526Z,65.17
2018-07-31T10:23:28.616Z,62.92
2018-07-31T10:24:28.676Z,63.18
2018-07-31T10:25:28.702Z,61.52
2018-07-31T10:26:28.760Z,63.96
2018-07-31T10:27:28.821Z,63.34
2018-07-31T10:28:28.879Z,64.48
2018-07-31T10:29:28.960Z,65.07
2018-07-31T10:30:28.995Z,65.46
2018-07-31T10:31:29.053Z,65.17
2018-07-31T10:32:29.113Z,64.68
2018-07-31T10:33:29.171Z,63.67
2018-07-31T10:34:29.264Z,64.45
2018-07-31T10:35:29.289Z,65.23
2018-07-31T10:36:29.349Z,64.36
2018-07-31T10:37:29.426Z,63.57
2018-07-31T10:38:29.463Z,65.04
2018-07-31T10:39:29.572Z,64.09
2018-07-31T10:40:29.580Z,63.05
2018-07-31T10:41:29.645Z,63.44
2018-07-31T10:42:29.698Z,61.43
2018-07-31T10:43:29.756Z,62.79
2018-07-31T10:44:30.559Z,62.99
2018-07-31T10:45:29.878Z,61.43
2018-07-31T10:46:29.933Z,60.32
2018-07-31T10:47:29.990Z,61.23
2018-07-31T10:48:30.049Z,57.17
2018-07-31T10:49:30.140Z,58.83
2018-07-31T10:50:30.201Z,59.87
2018-07-31T10:51:30.227Z,59.94
2018-07-31T10:52:30.284Z,59.87
2018-07-31T10:53:30.342Z,59.80
2018-07-31T10:54:30.440Z,56.87
2018-07-31T10:55:30.457Z,64.81
2018-07-31T10:56:30.517Z,61.04
2018-07-31T10:57:30.576Z,59.86
2018-07-31T10:58:30.654Z,59.77
2018-07-31T10:59:30.758Z,59.59
2018-07-31T11:00:30.752Z,61.19
2018-07-31T11:01:30.816Z,58.55
2018-07-31T11:02:30.871Z,55.66
2018-07-31T11:03:30.928Z,53.93
2018-07-31T11:04:31.014Z,60.02
2018-07-31T11:05:31.044Z,61.02
2018-07-31T11:06:31.158Z,59.88
2018-07-31T11:07:31.164Z,58.75
2018-07-31T11:08:31.223Z,59.20
2018-07-31T11:09:31.278Z,62.63
2018-07-31T11:10:31.346Z,63.70
2018-07-31T11:11:31.423Z,62.73
2018-07-31T11:12:31.457Z,65.20
2018-07-31T11:13:31.517Z,66.73
2018-07-31T11:14:31.576Z,66.66
2018-07-31T11:15:31.636Z,66.05
2018-07-31T11:16:31.718Z,64.71
2018-07-31T11:17:31.766Z,62.98
2018-07-31T11:18:31.812Z,60.96
2018-07-31T11:19:31.868Z,62.26
2018-07-31T11:20:31.930Z,64.03
2018-07-31T11:21:32.014Z,62.26
2018-07-31T11:22:32.076Z,61.23
2018-07-31T11:23:32.109Z,62.89
2018-07-31T11:24:32.168Z,59.47
2018-07-31T11:25:32.223Z,63.93
2018-07-31T11:26:32.306Z,63.48
2018-07-31T11:27:32.390Z,60.03
2018-07-31T11:28:32.403Z,62.08
2018-07-31T11:29:32.463Z,61.82
2018-07-31T11:30:32.522Z,64.19
2018-07-31T11:31:32.627Z,64.06
2018-07-31T11:32:32.640Z,61.24
2018-07-31T11:33:32.701Z,62.73
2018-07-31T11:34:32.760Z,65.39
2018-07-31T11:35:32.817Z,63.93
2018-07-31T11:36:32.901Z,59.83
2018-07-31T11:37:32.960Z,60.19
2018-07-31T11:38:33.029Z,61.40
2018-07-31T11:39:33.054Z,62.21
2018-07-31T11:40:33.114Z,63.12
2018-07-31T11:41:33.172Z,62.04
2018-07-31T11:42:33.252Z,56.67
2018-07-31T11:43:33.293Z,59.59
2018-07-31T11:44:33.349Z,60.73
2018-07-31T11:45:33.408Z,56.85
2018-07-31T11:46:33.468Z,55.67
2018-07-31T11:47:33.552Z,56.65
2018-07-31T11:48:33.587Z,56.75
2018-07-31T11:49:33.646Z,57.53
2018-07-31T11:50:33.707Z,60.24
2018-07-31T11:51:33.768Z,58.90
2018-07-31T11:52:33.851Z,58.15
2018-07-31T11:53:33.887Z,61.34
2018-07-31T11:54:33.949Z,55.19
2018-07-31T11:55:34.009Z,54.70
2018-07-31T11:56:34.066Z,56.10
2018-07-31T11:57:34.158Z,53.85
2018-07-31T11:58:34.209Z,56.34
2018-07-31T11:59:34.247Z,58.33
2018-07-31T12:00:34.307Z,56.30
2018-07-31T12:01:34.376Z,55.91
2018-07-31T12:02:34.450Z,55.76
2018-07-31T12:03:35.305Z,56.61
2018-07-31T12:04:34.553Z,58.37
2018-07-31T12:05:34.615Z,57.95
2018-07-31T12:06:34.685Z,58.90
2018-07-31T12:07:34.738Z,59.39
2018-07-31T12:08:34.822Z,59.63
2018-07-31T12:09:34.864Z,59.72
2018-07-31T12:10:34.921Z,61.58
2018-07-31T12:11:34.991Z,62.66
2018-07-31T12:12:35.043Z,62.26
2018-07-31T12:13:35.129Z,62.89
2018-07-31T12:14:35.188Z,65.43
2018-07-31T12:15:35.232Z,65.63
2018-07-31T12:16:35.290Z,66.34
2018-07-31T12:17:35.349Z,66.63
2018-07-31T12:18:35.406Z,66.37
2018-07-31T12:19:35.491Z,65.39
2018-07-31T12:20:35.531Z,65.65
2018-07-31T12:21:35.589Z,64.41
2018-07-31T12:22:35.650Z,62.98
2018-07-31T12:23:35.730Z,62.02
2018-07-31T12:24:36.817Z,62.02
2018-07-31T12:25:35.833Z,61.07
2018-07-31T12:26:35.894Z,56.76
2018-07-31T12:27:35.954Z,57.42
2018-07-31T12:28:36.015Z,58.59
2018-07-31T12:29:36.102Z,59.42
2018-07-31T12:30:36.138Z,61.25
2018-07-31T12:31:36.200Z,61.15
2018-07-31T12:32:36.261Z,61.51
2018-07-31T12:33:36.328Z,62.88
2018-07-31T12:34:36.407Z,63.57
2018-07-31T12:35:36.449Z,63.40
2018-07-31T12:36:36.507Z,63.96
2018-07-31T12:37:36.575Z,62.03
2018-07-31T12:38:36.662Z,62.92
2018-07-31T12:39:36.723Z,61.44
2018-07-31T12:40:36.753Z,60.69
2018-07-31T12:41:36.818Z,59.74
2018-07-31T12:42:36.901Z,57.42
2018-07-31T12:43:36.941Z,56.44
2018-07-31T12:44:37.024Z,56.15
2018-07-31T12:45:37.061Z,56.17
2018-07-31T12:46:37.158Z,55.58
2018-07-31T12:47:37.184Z,55.58
2018-07-31T12:48:37.306Z,55.88
2018-07-31T12:49:37.308Z,54.73
2018-07-31T12:50:37.374Z,54.56
2018-07-31T12:51:37.456Z,53.38
2018-07-31T12:52:37.519Z,53.02
2018-07-31T12:53:37.557Z,52.62